Time;durP1;ratioP1;P1;durP2;ratioP2;P2;SDS_P1;SDS_P2;PMS_P1;PMS_P2;Temp;Humidity;BMP_temperature;BMP_pressure;BME280_temperature;BME280_humidity;BME280_pressure;Samples;Min_cycle;Max_cycle;Signal;HPM_P1;HPM_P2
2023/03/19 00:00:30;;;;;;;7.25;2.75;;;6.90;99.90;;;;;;5058989;28;20401;-51
2023/03/19 00:02:57;;;;;;;8.63;2.50;;;6.80;99.90;;;;;;5080517;28;20094;-50
2023/03/19 00:05:24;;;;;;;7.55;3.50;;;6.80;99.90;;;;;;5076927;28;20439;-53
2023/03/19 00:07:50;;;;;;;16.88;3.75;;;6.80;99.90;;;;;;5077220;28;20093;-51
2023/03/19 00:10:17;;;;;;;8.60;3.15;;;6.80;99.90;;;;;;5089380;28;20040;-51
2023/03/19 00:12:44;;;;;;;11.55;3.75;;;6.80;99.90;;;;;;5089828;28;20098;-51
2023/03/19 00:15:13;;;;;;;9.35;3.08;;;6.70;99.90;;;;;;5083965;28;20116;-52
2023/03/19 00:17:41;;;;;;;8.23;3.25;;;6.70;99.90;;;;;;5093969;28;20048;-50
2023/03/19 00:20:10;;;;;;;10.93;3.50;;;6.70;99.90;;;;;;5094343;28;20097;-52
2023/03/19 00:22:38;;;;;;;10.23;3.20;;;6.60;99.90;;;;;;5085546;28;20046;-52
2023/03/19 00:25:07;;;;;;;10.15;4.28;;;6.70;99.90;;;;;;5092545;28;20044;-52
2023/03/19 00:27:35;;;;;;;12.40;4.38;;;6.60;99.90;;;;;;5094139;28;20044;-50
2023/03/19 00:30:03;;;;;;;10.38;3.42;;;6.60;99.90;;;;;;5090253;28;20472;-52
2023/03/19 00:32:32;;;;;;;9.50;4.13;;;6.50;99.90;;;;;;5075957;28;20602;-51
2023/03/19 00:34:59;;;;;;;10.77;4.57;;;6.50;99.90;;;;;;5093972;28;20406;-53
2023/03/19 00:37:26;;;;;;;11.73;4.15;;;6.40;99.90;;;;;;5093838;28;20475;-53
2023/03/19 00:39:54;;;;;;;9.60;4.10;;;7.10;99.90;;;;;;5093242;28;20038;-50
2023/03/19 00:42:21;;;;;;;7.03;4.25;;;6.40;99.90;;;;;;5075603;28;20420;-51
2023/03/19 00:44:48;;;;;;;14.85;4.95;;;6.30;99.90;;;;;;5094188;28;20123;-51
2023/03/19 00:47:15;;;;;;;9.63;4.32;;;6.30;99.90;;;;;;5074736;28;20093;-52
2023/03/19 00:49:42;;;;;;;11.15;4.05;;;6.30;99.90;;;;;;5075380;28;20039;-51
2023/03/19 00:52:08;;;;;;;11.35;4.25;;;6.20;99.90;;;;;;5074551;28;20101;-51
2023/03/19 00:54:35;;;;;;;17.20;4.90;;;6.20;99.90;;;;;;5075773;28;20109;-53
2023/03/19 00:57:02;;;;;;;11.98;4.85;;;6.20;99.90;;;;;;5075022;28;20040;-52
2023/03/19 00:59:29;;;;;;;15.63;4.68;;;6.10;99.90;;;;;;5073114;28;20134;-51
2023/03/19 01:01:56;;;;;;;9.98;3.95;;;6.00;99.90;;;;;;5093584;28;20457;-52
2023/03/19 01:04:22;;;;;;;6.72;3.15;;;6.00;99.90;;;;;;5093704;28;20090;-51
2023/03/19 01:06:49;;;;;;;8.57;3.33;;;6.00;99.90;;;;;;5075483;28;20044;-51
2023/03/19 01:09:17;;;;;;;9.30;3.97;;;6.10;99.90;;;;;;5074009;28;20060;-51
2023/03/19 01:11:43;;;;;;;10.27;4.15;;;6.10;99.90;;;;;;5093148;28;20089;-51
2023/03/19 01:14:11;;;;;;;7.93;4.03;;;6.10;99.90;;;;;;5075767;28;20044;-53
2023/03/19 01:16:38;;;;;;;7.57;3.20;;;6.10;99.90;;;;;;5074360;28;20504;-51
2023/03/19 01:19:05;;;;;;;7.00;3.70;;;6.00;99.90;;;;;;5074851;28;20055;-52
2023/03/19 01:21:32;;;;;;;9.93;4.07;;;6.00;99.90;;;;;;5074820;28;20505;-55
2023/03/19 01:23:59;;;;;;;9.70;3.13;;;6.00;99.90;;;;;;5075316;28;20059;-52
2023/03/19 01:26:27;;;;;;;13.55;3.55;;;6.00;99.90;;;;;;5073938;28;20040;-54
2023/03/19 01:29:02;;;;;;;5.65;3.15;;;6.00;99.90;;;;;;5072274;28;20040;-52
2023/03/19 01:31:29;;;;;;;6.70;2.55;;;6.10;99.90;;;;;;5074546;28;20097;-52
2023/03/19 01:34:27;;;;;;;7.43;3.75;;;6.10;99.90;;;;;;5092787;28;20044;-51
2023/03/19 01:37:00;;;;;;;11.40;4.10;;;6.00;99.90;;;;;;5074504;28;20048;-53
2023/03/19 01:39:31;;;;;;;8.48;3.38;;;5.80;99.90;;;;;;5068140;28;20051;-53
2023/03/19 01:42:03;;;;;;;10.70;4.57;;;5.70;99.90;;;;;;5074497;28;20051;-51
2023/03/19 01:44:50;;;;;;;9.32;4.40;;;5.60;99.90;;;;;;5070636;28;20052;-54
2023/03/19 01:47:22;;;;;;;9.05;4.85;;;5.60;99.90;;;;;;5085214;28;20052;-51
2023/03/19 01:50:31;;;;;;;9.05;3.30;;;5.60;99.90;;;;;;5092678;28;20055;-53
2023/03/19 01:53:26;;;;;;;8.55;3.13;;;5.60;99.90;;;;;;5091176;28;20051;-52
2023/03/19 01:56:14;;;;;;;8.15;2.92;;;5.60;99.90;;;;;;5074598;28;20058;-50
2023/03/19 01:59:24;;;;;;;10.10;3.20;;;5.60;99.90;;;;;;5088450;28;20078;-50
2023/03/19 02:02:19;;;;;;;7.78;3.20;;;5.60;99.90;;;;;;5087909;28;20098;-52
2023/03/19 02:04:50;;;;;;;8.93;3.47;;;5.50;99.90;;;;;;5074494;28;20044;-52
2023/03/19 02:07:17;;;;;;;5.95;2.47;;;5.40;99.90;;;;;;5074001;28;20095;-53
2023/03/19 02:09:44;;;;;;;5.80;2.25;;;5.30;99.90;;;;;;5086468;28;20059;-50
2023/03/19 02:12:11;;;;;;;6.78;2.75;;;5.30;99.90;;;;;;5072918;28;20043;-51
2023/03/19 02:14:38;;;;;;;5.72;2.25;;;5.30;99.90;;;;;;5072849;28;20044;-53
2023/03/19 02:17:07;;;;;;;11.35;2.78;;;5.30;99.90;;;;;;5087496;28;20079;-51
2023/03/19 02:19:42;;;;;;;7.82;2.88;;;5.30;99.90;;;;;;5073431;28;20040;-52
2023/03/19 02:22:10;;;;;;;5.10;2.28;;;5.40;99.90;;;;;;5091197;28;20036;-52
2023/03/19 02:24:48;;;;;;;4.60;2.25;;;5.40;99.90;;;;;;5072872;28;20043;-51
2023/03/19 02:27:18;;;;;;;8.27;2.65;;;5.40;99.90;;;;;;5088073;28;20048;-50
2023/03/19 02:29:47;;;;;;;9.27;2.40;;;5.50;99.90;;;;;;5069170;28;20050;-51
2023/03/19 02:32:15;;;;;;;6.30;2.22;;;5.50;99.90;;;;;;5090974;28;20057;-50
2023/03/19 02:34:43;;;;;;;7.18;2.55;;;5.40;99.90;;;;;;5092198;28;20090;-52
2023/03/19 02:37:27;;;;;;;9.63;3.15;;;5.30;99.90;;;;;;5072060;28;20071;-50
2023/03/19 02:40:03;;;;;;;5.20;2.50;;;5.30;99.90;;;;;;5071927;28;20597;-50
2023/03/19 02:42:30;;;;;;;4.68;2.33;;;5.30;99.90;;;;;;5085014;28;20039;-51
2023/03/19 02:44:57;;;;;;;6.78;2.10;;;5.40;99.90;;;;;;5091578;28;20040;-50
2023/03/19 02:47:25;;;;;;;4.22;2.15;;;5.40;99.90;;;;;;5092293;28;20392;-50
2023/03/19 02:49:52;;;;;;;4.60;2.20;;;5.50;99.90;;;;;;5087561;28;20044;-52
2023/03/19 02:52:19;;;;;;;4.30;2.33;;;5.50;99.90;;;;;;5091242;28;20035;-54
2023/03/19 02:54:47;;;;;;;4.35;2.28;;;5.40;99.90;;;;;;5090629;28;20032;-52
2023/03/19 02:57:14;;;;;;;5.13;2.13;;;5.40;99.90;;;;;;5092072;28;20043;-51
2023/03/19 02:59:40;;;;;;;5.53;2.00;;;5.40;99.90;;;;;;5091378;28;20114;-49
2023/03/19 03:02:08;;;;;;;8.32;2.45;;;5.40;99.90;;;;;;5091483;28;20063;-49
2023/03/19 03:04:38;;;;;;;7.32;2.33;;;5.40;99.90;;;;;;5089731;28;20040;-52
2023/03/19 03:07:06;;;;;;;16.90;2.20;;;5.30;99.90;;;;;;5090141;28;20564;-50
2023/03/19 03:09:33;;;;;;;7.32;2.72;;;5.30;99.90;;;;;;5090854;28;20066;-51
2023/03/19 03:12:00;;;;;;;;;;;5.40;99.90;;;;;;5089784;28;20044;-54
2023/03/19 03:14:27;;;;;;;6.03;2.67;;;5.40;99.90;;;;;;5071848;28;19963;-51
2023/03/19 03:16:56;;;;;;;4.70;2.17;;;5.40;99.90;;;;;;5090720;28;20073;-50
2023/03/19 03:19:22;;;;;;;7.60;3.15;;;5.40;99.90;;;;;;5089395;28;20454;-52
2023/03/19 03:21:49;;;;;;;12.35;4.50;;;5.30;99.90;;;;;;5072642;28;20040;-51
2023/03/19 03:24:16;;;;;;;4.35;2.35;;;5.30;99.90;;;;;;5089059;28;20841;-52
2023/03/19 03:26:44;;;;;;;8.13;3.05;;;5.20;99.90;;;;;;5073189;28;20097;-51
2023/03/19 03:29:10;;;;;;;6.90;3.63;;;5.20;99.90;;;;;;5071890;28;20050;-50
2023/03/19 03:31:37;;;;;;;7.95;3.60;;;5.20;99.90;;;;;;5091338;28;20059;-53
2023/03/19 03:34:04;;;;;;;8.50;2.60;;;5.20;99.90;;;;;;5090539;28;20036;-50
2023/03/19 03:36:31;;;;;;;5.75;3.05;;;5.20;99.90;;;;;;5071106;28;20074;-50
2023/03/19 03:38:58;;;;;;;7.63;3.00;;;5.10;99.90;;;;;;5069649;28;20112;-51
2023/03/19 03:41:25;;;;;;;5.60;2.25;;;5.00;99.90;;;;;;5072977;28;20055;-50
2023/03/19 03:43:52;;;;;;;9.05;2.63;;;4.90;99.90;;;;;;5072894;28;20044;-50
2023/03/19 03:46:19;;;;;;;9.40;2.42;;;4.90;99.90;;;;;;5069940;28;20044;-51
2023/03/19 03:48:50;;;;;;;9.43;2.95;;;4.90;99.90;;;;;;5060068;28;20047;-51
2023/03/19 03:51:18;;;;;;;5.72;2.03;;;4.90;99.90;;;;;;5072321;28;20076;-52
2023/03/19 03:53:45;;;;;;;5.72;2.67;;;4.90;99.90;;;;;;5076648;28;20048;-55
2023/03/19 03:56:13;;;;;;;9.68;2.60;;;4.90;99.90;;;;;;5074956;28;20508;-50
2023/03/19 03:58:40;;;;;;;5.18;2.55;;;5.00;99.90;;;;;;5076439;28;20565;-50
2023/03/19 04:01:09;;;;;;;6.57;2.30;;;4.90;99.90;;;;;;5094237;28;20450;-49
2023/03/19 04:03:36;;;;;;;4.28;2.60;;;5.00;99.90;;;;;;5089983;28;20036;-51
2023/03/19 04:06:03;;;;;;;6.53;2.00;;;4.90;99.90;;;;;;5070628;28;20043;-52
2023/03/19 04:08:30;;;;;;;7.35;2.30;;;4.90;99.90;;;;;;5076545;28;20048;-52
2023/03/19 04:10:58;;;;;;;9.05;2.38;;;4.90;99.90;;;;;;5094519;28;20446;-50
2023/03/19 04:13:50;;;;;;;;;;;4.90;99.90;;;;;;5074452;22;20053;-56
2023/03/19 04:16:17;;;;;;;6.45;2.47;;;4.90;99.90;;;;;;5068720;28;20467;-51
2023/03/19 04:18:43;;;;;;;7.43;2.53;;;4.90;99.90;;;;;;5053644;28;20414;-55
2023/03/19 04:21:10;;;;;;;6.63;2.75;;;4.90;99.90;;;;;;5056585;28;20037;-53
2023/03/19 04:23:37;;;;;;;8.10;3.45;;;4.90;99.90;;;;;;5073999;28;20492;-54
2023/03/19 04:26:06;;;;;;;5.22;2.97;;;4.90;99.90;;;;;;5055988;28;20068;-58
2023/03/19 04:28:34;;;;;;;9.00;3.70;;;5.00;99.90;;;;;;5052371;28;20124;-55
2023/03/19 04:31:03;;;;;;;7.38;4.05;;;5.00;99.90;;;;;;5065475;28;20037;-54
2023/03/19 04:33:33;;;;;;;5.78;3.53;;;5.00;99.90;;;;;;5072906;28;20073;-57
2023/03/19 04:36:01;;;;;;;7.10;3.60;;;5.10;99.90;;;;;;5055981;28;20040;-58
2023/03/19 04:38:28;;;;;;;6.13;3.65;;;5.10;99.90;;;;;;5073364;28;20093;-53
2023/03/19 04:40:55;;;;;;;8.73;4.70;;;5.20;99.90;;;;;;5072753;28;20094;-54
2023/03/19 04:43:22;;;;;;;;;;;5.20;99.90;;;;;;5073381;28;20099;-54
2023/03/19 04:45:50;;;;;;;6.97;3.15;;;5.20;99.90;;;;;;5067986;28;19921;-54
2023/03/19 04:48:21;;;;;;;7.45;3.65;;;5.10;99.90;;;;;;5064881;28;20047;-57
2023/03/19 04:50:52;;;;;;;4.22;2.80;;;5.00;99.90;;;;;;5072009;28;20045;-56
2023/03/19 04:53:19;;;;;;;6.00;3.35;;;4.80;99.90;;;;;;5072829;28;20496;-54
2023/03/19 04:55:47;;;;;;;11.88;3.67;;;4.70;99.90;;;;;;5070958;28;20036;-55
2023/03/19 04:58:16;;;;;;;7.07;3.40;;;4.60;99.90;;;;;;5072251;28;20044;-53
2023/03/19 05:00:46;;;;;;;4.32;3.08;;;4.60;99.90;;;;;;5070452;28;20118;-52
2023/03/19 05:03:18;;;;;;;15.20;4.00;;;4.60;99.90;;;;;;5072023;28;20416;-57
2023/03/19 05:05:46;;;;;;;5.03;3.55;;;4.70;99.90;;;;;;5073036;28;20039;-53
2023/03/19 05:08:13;;;;;;;9.32;4.10;;;4.70;99.90;;;;;;5070766;28;20063;-54
2023/03/19 05:10:40;;;;;;;9.20;4.15;;;4.70;99.90;;;;;;5072079;28;20078;-55
2023/03/19 05:13:08;;;;;;;10.25;3.60;;;4.70;99.90;;;;;;5071402;28;20041;-55
2023/03/19 05:15:43;;;;;;;13.18;3.75;;;4.60;99.90;;;;;;5071918;28;20040;-53
2023/03/19 05:18:12;;;;;;;9.10;3.97;;;4.50;99.90;;;;;;5071821;28;20041;-55
2023/03/19 05:20:42;;;;;;;8.60;3.75;;;4.50;99.90;;;;;;5072489;28;20061;-53
2023/03/19 05:23:16;;;;;;;9.77;3.92;;;4.50;99.90;;;;;;5069902;28;20064;-51
2023/03/19 05:25:59;;;;;;;10.05;3.95;;;4.50;99.90;;;;;;5071855;28;20046;-52
2023/03/19 05:28:45;;;;;;;6.82;4.35;;;4.50;99.90;;;;;;5072528;28;20052;-51
2023/03/19 05:31:14;;;;;;;11.32;4.50;;;4.60;99.90;;;;;;5072087;28;20103;-52
2023/03/19 05:33:48;;;;;;;10.25;4.18;;;4.60;99.90;;;;;;5068038;28;20460;-53
2023/03/19 05:36:16;;;;;;;9.00;4.03;;;4.70;99.90;;;;;;5071050;28;20555;-51
2023/03/19 05:38:55;;;;;;;7.93;4.28;;;4.60;99.90;;;;;;5070099;28;20054;-54
2023/03/19 05:41:28;;;;;;;8.20;3.58;;;4.60;99.90;;;;;;5067626;28;20064;-53
2023/03/19 05:44:03;;;;;;;8.50;3.58;;;4.60;99.90;;;;;;5068724;28;20048;-51
2023/03/19 05:46:42;;;;;;;7.45;3.88;;;4.70;99.90;;;;;;5071399;28;20643;-54
2023/03/19 05:49:10;;;;;;;11.40;4.30;;;4.70;99.90;;;;;;5071228;28;20040;-55
2023/03/19 05:51:37;;;;;;;9.48;2.92;;;4.80;99.90;;;;;;5071090;28;20043;-55
2023/03/19 05:54:05;;;;;;;5.03;3.15;;;4.80;99.90;;;;;;5063039;28;20048;-56
2023/03/19 05:56:35;;;;;;;8.20;3.42;;;4.80;99.90;;;;;;5070002;28;20055;-54
2023/03/19 05:59:22;;;;;;;8.13;3.38;;;4.80;99.90;;;;;;5055589;28;20051;-55
2023/03/19 06:02:02;;;;;;;6.78;3.33;;;4.60;99.90;;;;;;5069366;28;20044;-56
2023/03/19 06:04:29;;;;;;;12.20;5.25;;;4.60;99.90;;;;;;5069814;28;20140;-54
2023/03/19 06:06:56;;;;;;;9.02;4.85;;;4.60;99.90;;;;;;5069839;28;20132;-56
2023/03/19 06:09:23;;;;;;;9.48;4.93;;;4.70;99.90;;;;;;5070539;28;20389;-54
2023/03/19 06:11:54;;;;;;;7.85;3.30;;;4.80;99.90;;;;;;5062254;28;20090;-51
2023/03/19 06:14:39;;;;;;;6.18;3.33;;;4.80;99.90;;;;;;5072226;28;20075;-54
2023/03/19 06:17:38;;;;;;;8.63;2.85;;;4.90;99.90;;;;;;5072497;28;20508;-50
2023/03/19 06:20:09;;;;;;;7.68;3.03;;;5.00;99.90;;;;;;5069348;28;20052;-51
2023/03/19 06:22:36;;;;;;;10.40;3.53;;;4.90;99.90;;;;;;5054390;28;20052;-54
2023/03/19 06:25:05;;;;;;;6.25;3.30;;;5.00;99.90;;;;;;5068189;28;20118;-54
2023/03/19 06:27:35;;;;;;;13.13;3.65;;;5.00;99.90;;;;;;5070640;28;20504;-51
2023/03/19 06:30:18;;;;;;;5.57;3.50;;;5.00;99.90;;;;;;5067747;28;20456;-52
2023/03/19 06:32:45;;;;;;;7.47;3.40;;;5.10;99.90;;;;;;5070460;28;20036;-52
2023/03/19 06:35:13;;;;;;;5.70;3.13;;;5.10;99.90;;;;;;5069208;28;20040;-55
2023/03/19 06:37:42;;;;;;;8.13;4.07;;;5.20;99.90;;;;;;5070536;28;20531;-54
2023/03/19 06:40:09;;;;;;;11.30;4.80;;;5.30;99.90;;;;;;5070664;28;20091;-52
2023/03/19 06:42:36;;;;;;;9.80;4.68;;;5.20;99.90;;;;;;5063183;28;20521;-55
2023/03/19 06:45:04;;;;;;;8.05;4.90;;;5.20;99.90;;;;;;5085566;28;20041;-53
2023/03/19 06:47:30;;;;;;;10.98;4.40;;;5.20;99.90;;;;;;5071224;28;20116;-53
2023/03/19 06:49:58;;;;;;;8.80;4.75;;;5.20;99.90;;;;;;5071422;28;20504;-56
2023/03/19 06:52:25;;;;;;;10.52;6.07;;;5.30;99.90;;;;;;5063677;28;20075;-55
2023/03/19 06:54:51;;;;;;;10.50;3.92;;;5.30;99.90;;;;;;5071364;28;20094;-52
2023/03/19 06:57:18;;;;;;;9.73;4.45;;;5.50;99.90;;;;;;5071463;28;20052;-54
2023/03/19 06:59:45;;;;;;;10.70;5.97;;;5.70;99.90;;;;;;5071416;28;20072;-52
2023/03/19 07:02:12;;;;;;;17.80;6.78;;;5.90;99.90;;;;;;5062884;28;20102;-55
2023/03/19 07:04:38;;;;;;;10.52;5.78;;;6.00;99.90;;;;;;5071361;28;20559;-52
2023/03/19 07:07:05;;;;;;;12.55;6.32;;;6.30;99.90;;;;;;5064820;28;20045;-54
2023/03/19 07:09:32;;;;;;;9.98;4.80;;;6.50;99.90;;;;;;5070741;28;20642;-55
2023/03/19 07:11:59;;;;;;;10.35;5.05;;;6.50;99.90;;;;;;5067216;28;20513;-56
2023/03/19 07:14:25;;;;;;;10.82;4.65;;;6.60;99.90;;;;;;5070604;28;20040;-51
2023/03/19 07:16:52;;;;;;;13.38;5.97;;;6.60;99.90;;;;;;5069923;28;20072;-54
2023/03/19 07:19:19;;;;;;;15.35;5.50;;;6.70;99.90;;;;;;5070829;28;20113;-56
2023/03/19 07:21:46;;;;;;;9.45;4.95;;;6.80;99.90;;;;;;5069877;28;20040;-54
2023/03/19 07:24:13;;;;;;;11.85;5.82;;;6.80;99.90;;;;;;5071057;28;20094;-55
2023/03/19 07:26:41;;;;;;;7.80;5.53;;;6.90;99.90;;;;;;5070625;28;20044;-55
2023/03/19 07:29:08;;;;;;;12.93;5.18;;;7.10;99.90;;;;;;5062633;28;20051;-54
2023/03/19 07:31:34;;;;;;;15.88;5.65;;;7.20;99.90;;;;;;5070495;28;20071;-56
2023/03/19 07:34:01;;;;;;;8.90;4.70;;;7.40;99.90;;;;;;5071031;28;20052;-51
2023/03/19 07:36:28;;;;;;;12.55;6.30;;;7.70;99.90;;;;;;5068287;28;20920;-56
2023/03/19 07:38:56;;;;;;;13.93;5.45;;;7.90;99.90;;;;;;5067306;28;20068;-53
2023/03/19 07:41:22;;;;;;;8.68;4.65;;;8.20;99.90;;;;;;5070321;28;20548;-54
2023/03/19 07:43:49;;;;;;;9.63;5.22;;;8.30;99.90;;;;;;5070726;28;20041;-52
2023/03/19 07:46:16;;;;;;;6.13;4.07;;;8.40;99.90;;;;;;5068196;28;20036;-54
2023/03/19 07:48:43;;;;;;;;;;;8.60;99.90;;;;;;5070617;28;20044;-54
2023/03/19 07:51:10;;;;;;;13.70;5.28;;;8.70;99.90;;;;;;5070613;28;19932;-53
2023/03/19 07:53:37;;;;;;;10.48;4.95;;;8.90;99.90;;;;;;5070926;28;20037;-57
2023/03/19 07:56:04;;;;;;;8.93;4.95;;;9.00;99.90;;;;;;5064878;28;20053;-52
2023/03/19 07:58:30;;;;;;;8.40;4.20;;;9.10;99.90;;;;;;5070319;28;20090;-53
2023/03/19 08:00:57;;;;;;;8.95;3.70;;;9.30;99.90;;;;;;5067791;28;20102;-53
2023/03/19 08:03:24;;;;;;;10.60;4.70;;;9.60;99.90;;;;;;5067353;28;20055;-53
2023/03/19 08:05:51;;;;;;;8.73;4.70;;;9.50;99.90;;;;;;5070635;28;20078;-55
2023/03/19 08:08:18;;;;;;;8.00;3.72;;;9.50;99.90;;;;;;5069249;28;20086;-52
2023/03/19 08:10:46;;;;;;;7.35;3.88;;;9.70;99.90;;;;;;5070524;28;20072;-52
2023/03/19 08:13:13;;;;;;;9.25;3.90;;;9.80;99.90;;;;;;5068577;28;20451;-53
2023/03/19 08:16:06;;;;;;;6.72;3.85;;;9.80;99.90;;;;;;5068854;28;20040;-57
2023/03/19 08:18:33;;;;;;;8.60;3.67;;;9.90;99.90;;;;;;5064192;28;20115;-55
2023/03/19 08:21:00;;;;;;;8.60;3.85;;;10.30;99.90;;;;;;5070243;28;20496;-54
2023/03/19 08:23:27;;;;;;;11.25;4.13;;;10.30;99.90;;;;;;5070627;28;20135;-52
2023/03/19 08:25:55;;;;;;;13.18;4.60;;;10.50;99.90;;;;;;5068229;28;20558;-51
2023/03/19 08:28:23;;;;;;;8.55;4.35;;;10.60;99.90;;;;;;5070259;28;20098;-51
2023/03/19 08:30:49;;;;;;;8.93;4.22;;;10.50;99.90;;;;;;5067258;28;20439;-54
2023/03/19 08:33:16;;;;;;;6.22;4.45;;;10.40;99.90;;;;;;5069968;28;20076;-53
2023/03/19 08:35:43;;;;;;;10.07;4.22;;;10.50;99.90;;;;;;5065977;28;20082;-52
2023/03/19 08:38:10;;;;;;;14.73;4.50;;;10.60;99.90;;;;;;5072131;28;20037;-53
2023/03/19 08:40:37;;;;;;;10.07;4.20;;;10.80;99.90;;;;;;5070928;28;20048;-51
2023/03/19 08:43:04;;;;;;;8.02;4.57;;;10.80;99.90;;;;;;5072858;28;20086;-55
2023/03/19 08:45:31;;;;;;;8.20;4.47;;;10.80;99.90;;;;;;5071904;28;20072;-52
2023/03/19 08:47:57;;;;;;;10.93;4.97;;;10.60;99.90;;;;;;5073357;28;20076;-54
2023/03/19 08:50:24;;;;;;;9.45;4.53;;;10.40;99.90;;;;;;5072124;28;20094;-55
2023/03/19 08:52:51;;;;;;;7.57;4.13;;;10.30;99.90;;;;;;5073297;28;20146;-54
2023/03/19 08:55:18;;;;;;;13.85;4.53;;;10.10;99.90;;;;;;5071518;28;20481;-53
2023/03/19 08:57:45;;;;;;;14.40;4.32;;;10.00;99.90;;;;;;5073334;28;20048;-55
2023/03/19 09:00:12;;;;;;;6.80;4.15;;;9.90;99.90;;;;;;5070470;28;20044;-53
2023/03/19 09:02:39;;;;;;;14.85;4.75;;;9.80;99.90;;;;;;5070877;28;20044;-54
2023/03/19 09:05:06;;;;;;;8.13;4.40;;;9.80;99.90;;;;;;5072157;28;20036;-53
2023/03/19 09:07:33;;;;;;;12.27;4.43;;;9.80;99.90;;;;;;5072859;28;20504;-56
2023/03/19 09:10:00;;;;;;;8.07;4.18;;;9.80;99.90;;;;;;5071007;28;20113;-55
2023/03/19 09:12:26;;;;;;;9.77;4.43;;;9.80;99.90;;;;;;5072482;28;20041;-55
2023/03/19 09:14:53;;;;;;;8.13;4.82;;;9.90;99.90;;;;;;5072498;28;20443;-56
2023/03/19 09:17:20;;;;;;;10.38;4.65;;;9.90;99.90;;;;;;5071852;28;20048;-52
2023/03/19 09:19:47;;;;;;;7.57;5.38;;;10.00;99.90;;;;;;5069752;28;20469;-52
2023/03/19 09:22:14;;;;;;;15.23;5.75;;;9.90;99.90;;;;;;5070240;28;20098;-54
2023/03/19 09:24:40;;;;;;;17.58;5.38;;;9.90;99.90;;;;;;5071455;28;20040;-55
2023/03/19 09:27:07;;;;;;;9.23;4.32;;;9.90;99.90;;;;;;5065861;28;20036;-55
2023/03/19 09:29:34;;;;;;;13.32;5.40;;;10.00;99.90;;;;;;5070632;28;20036;-56
2023/03/19 09:32:01;;;;;;;8.10;4.15;;;10.10;99.90;;;;;;5072211;28;20052;-55
2023/03/19 09:34:27;;;;;;;7.95;4.82;;;10.10;99.90;;;;;;5070476;28;20044;-55
2023/03/19 09:36:54;;;;;;;7.43;4.05;;;10.30;99.90;;;;;;5072473;28;20048;-54
2023/03/19 09:39:21;;;;;;;8.55;4.20;;;10.40;99.90;;;;;;5070931;28;20497;-56
2023/03/19 09:41:52;;;;;;;7.45;3.80;;;10.50;99.90;;;;;;5069890;28;20443;-54
2023/03/19 09:44:33;;;;;;;4.88;3.65;;;10.60;99.90;;;;;;5071977;28;20036;-52
2023/03/19 09:47:11;;;;;;;7.13;3.97;;;10.70;99.90;;;;;;5072776;28;20041;-55
2023/03/19 09:49:42;;;;;;;5.57;3.35;;;10.80;99.90;;;;;;5065847;28;20043;-55
2023/03/19 09:52:40;;;;;;;7.60;4.10;;;10.90;99.90;;;;;;5068825;28;20037;-55
2023/03/19 09:55:14;;;;;;;8.05;3.60;;;11.00;99.90;;;;;;5072324;28;20040;-53
2023/03/19 09:57:41;;;;;;;4.35;3.42;;;11.00;99.90;;;;;;5069675;28;20047;-54
2023/03/19 10:00:21;;;;;;;8.27;3.35;;;11.10;99.90;;;;;;5070693;28;20528;-56
2023/03/19 10:03:11;;;;;;;9.60;3.78;;;11.20;99.90;;;;;;5068526;28;20045;-55
2023/03/19 10:06:17;;;;;;;10.02;3.50;;;11.30;99.90;;;;;;5070427;28;20068;-53
2023/03/19 10:09:15;;;;;;;8.00;3.50;;;11.40;99.90;;;;;;5066803;28;20040;-56
2023/03/19 10:12:10;;;;;;;5.55;3.15;;;11.60;99.90;;;;;;5072036;28;20070;-56
2023/03/19 10:15:02;;;;;;;7.45;4.03;;;11.70;99.90;;;;;;5068531;28;20098;-56
2023/03/19 10:17:40;;;;;;;11.32;4.00;;;11.80;99.90;;;;;;5070995;28;20114;-56
2023/03/19 10:20:41;;;;;;;5.22;2.95;;;11.90;99.90;;;;;;5070490;28;20095;-49
2023/03/19 10:23:26;;;;;;;5.80;3.90;;;11.90;99.90;;;;;;5065724;28;20134;-53
2023/03/19 10:25:57;;;;;;;12.40;3.55;;;11.90;99.90;;;;;;5071444;28;20071;-55
2023/03/19 10:28:27;;;;;;;8.20;3.67;;;12.10;99.90;;;;;;5063218;28;20047;-52
2023/03/19 10:31:21;;;;;;;5.70;3.50;;;12.10;99.90;;;;;;5068634;28;20482;-54
2023/03/19 10:34:03;;;;;;;7.63;3.13;;;12.20;99.90;;;;;;5069661;28;20067;-54
2023/03/19 10:36:33;;;;;;;4.25;3.22;;;12.40;99.90;;;;;;5070644;28;20103;-55
2023/03/19 10:39:00;;;;;;;5.35;3.72;;;12.50;99.90;;;;;;5070794;28;20052;-53
2023/03/19 10:41:30;;;;;;;7.70;3.42;;;12.60;99.90;;;;;;5070831;28;20090;-54
2023/03/19 10:44:04;;;;;;;7.03;3.10;;;12.70;99.90;;;;;;5068539;28;20076;-52
2023/03/19 10:46:40;;;;;;;4.65;2.70;;;12.80;99.90;;;;;;5066582;28;20106;-55
2023/03/19 10:49:13;;;;;;;5.15;2.55;;;12.90;99.90;;;;;;5069754;28;20041;-55
2023/03/19 10:51:44;;;;;;;10.30;3.03;;;13.00;99.90;;;;;;5066328;28;20040;-55
2023/03/19 10:54:23;;;;;;;6.15;2.75;;;13.10;99.90;;;;;;5071117;28;20036;-55
2023/03/19 10:56:54;;;;;;;6.35;2.45;;;13.00;99.90;;;;;;5070774;28;20044;-51
2023/03/19 10:59:30;;;;;;;6.32;2.92;;;13.00;99.90;;;;;;5067441;28;20049;-57
2023/03/19 11:02:01;;;;;;;7.55;3.47;;;13.10;99.90;;;;;;5068775;28;20549;-51
2023/03/19 11:04:28;;;;;;;6.80;2.70;;;13.10;99.90;;;;;;5068746;28;20098;-55
2023/03/19 11:07:02;;;;;;;5.57;3.03;;;13.10;99.90;;;;;;5070443;28;20770;-56
2023/03/19 11:09:35;;;;;;;7.65;3.25;;;13.10;99.90;;;;;;5068627;28;20104;-55
2023/03/19 11:12:32;;;;;;;10.43;3.78;;;13.10;99.90;;;;;;5070637;28;20559;-56
2023/03/19 11:15:02;;;;;;;7.85;3.30;;;13.20;99.90;;;;;;5059336;28;20471;-54
2023/03/19 11:17:44;;;;;;;10.50;3.72;;;13.20;99.90;;;;;;5070262;28;20046;-56
2023/03/19 11:20:26;;;;;;;5.95;3.10;;;13.20;99.90;;;;;;5069904;28;20041;-53
2023/03/19 11:22:57;;;;;;;5.72;2.78;;;13.20;99.90;;;;;;5063461;28;20329;-54
2023/03/19 11:25:27;;;;;;;5.10;2.72;;;13.20;99.90;;;;;;5070607;28;20501;-51
2023/03/19 11:28:12;;;;;;;8.32;3.33;;;13.30;99.90;;;;;;5065958;28;20040;-57
2023/03/19 11:30:55;;;;;;;5.15;3.45;;;13.40;99.90;;;;;;5052081;28;20041;-55
2023/03/19 11:33:37;;;;;;;4.28;3.05;;;13.60;99.90;;;;;;5065602;28;20536;-54
2023/03/19 11:36:19;;;;;;;6.97;2.78;;;13.90;99.90;;;;;;5070690;28;20056;-53
2023/03/19 11:39:11;;;;;;;4.80;2.63;;;14.10;99.90;;;;;;5066207;28;20064;-54
2023/03/19 11:41:52;;;;;;;4.03;2.45;;;14.30;99.90;;;;;;5069901;28;20071;-51
2023/03/19 11:44:34;;;;;;;8.65;2.55;;;14.40;99.90;;;;;;5070442;28;20048;-54
2023/03/19 11:47:11;;;;;;;5.97;2.60;;;14.40;99.90;;;;;;5066762;28;20147;-56
2023/03/19 11:50:21;;;;;;;4.07;2.40;;;14.50;99.90;;;;;;5068964;28;20616;-52
2023/03/19 11:52:57;;;;;;;4.13;2.53;;;14.60;99.90;;;;;;5068049;28;20040;-51
2023/03/19 11:55:53;;;;;;;4.78;2.28;;;14.70;99.90;;;;;;5065170;28;20044;-52
2023/03/19 11:58:49;;;;;;;6.07;2.22;;;14.70;99.90;;;;;;5069172;28;20068;-54
2023/03/19 12:01:43;;;;;;;6.75;2.38;;;14.60;99.90;;;;;;5060181;28;20105;-53
2023/03/19 12:04:21;;;;;;;4.10;2.03;;;14.60;99.90;;;;;;5065416;28;20064;-53
2023/03/19 12:06:52;;;;;;;;;;;14.70;99.90;;;;;;5068383;28;20793;-53
2023/03/19 12:09:51;;;;;;;5.43;2.28;;;14.80;99.90;;;;;;5048771;28;19929;-56
2023/03/19 12:12:28;;;;;;;4.75;2.35;;;15.20;99.90;;;;;;5063720;28;20041;-52
2023/03/19 12:15:15;;;;;;;7.82;2.58;;;15.50;99.90;;;;;;5073795;28;20040;-55
2023/03/19 12:17:58;;;;;;;5.68;2.45;;;15.80;99.90;;;;;;5074741;28;20114;-54
2023/03/19 12:20:43;;;;;;;3.50;2.10;;;15.90;99.90;;;;;;5067189;28;20044;-57
2023/03/19 12:23:39;;;;;;;3.80;2.15;;;15.90;99.90;;;;;;5073640;28;20036;-56
2023/03/19 12:26:13;;;;;;;6.60;2.47;;;16.00;99.70;;;;;;5074478;28;20053;-53
2023/03/19 12:28:45;;;;;;;5.55;2.45;;;16.00;99.50;;;;;;5068653;28;20447;-55
2023/03/19 12:31:35;;;;;;;4.50;2.30;;;16.20;98.70;;;;;;5065781;28;20102;-54
2023/03/19 12:34:11;;;;;;;6.25;2.67;;;16.20;98.10;;;;;;5074289;28;20083;-52
2023/03/19 12:36:56;;;;;;;6.28;2.65;;;16.20;96.90;;;;;;5073597;28;20048;-53
2023/03/19 12:39:32;;;;;;;5.50;2.50;;;16.10;97.80;;;;;;5062977;28;20049;-51
2023/03/19 12:42:01;;;;;;;3.97;2.83;;;15.90;98.70;;;;;;5070989;28;20049;-53
2023/03/19 12:44:35;;;;;;;6.88;2.85;;;15.90;99.40;;;;;;5069059;28;20053;-55
2023/03/19 12:47:11;;;;;;;5.93;2.45;;;16.00;98.90;;;;;;5071510;28;20098;-51
2023/03/19 12:49:58;;;;;;;5.43;2.47;;;16.10;98.20;;;;;;5072746;28;20071;-52
2023/03/19 12:52:39;;;;;;;4.90;2.50;;;16.00;97.70;;;;;;5073933;28;20567;-53
2023/03/19 12:55:17;;;;;;;5.88;3.10;;;15.80;98.20;;;;;;5064129;28;20041;-54
2023/03/19 12:57:46;;;;;;;4.75;3.03;;;15.50;98.30;;;;;;5087450;22;20408;-52
2023/03/19 13:00:48;;;;;;;4.90;2.70;;;15.40;99.40;;;;;;5063419;28;20468;-54
2023/03/19 13:03:31;;;;;;;5.90;2.90;;;15.30;99.50;;;;;;5072552;28;20049;-52
2023/03/19 13:06:14;;;;;;;9.43;2.67;;;15.10;99.30;;;;;;5072311;28;20068;-51
2023/03/19 13:09:13;;;;;;;5.55;2.60;;;15.10;99.00;;;;;;5072276;28;20033;-51
2023/03/19 13:11:50;;;;;;;4.47;2.35;;;15.20;99.40;;;;;;5043538;28;20497;-50
2023/03/19 13:14:38;;;;;;;6.90;2.20;;;15.20;99.90;;;;;;5073641;28;20074;-51
2023/03/19 13:17:37;;;;;;;4.68;2.65;;;15.30;99.40;;;;;;5072806;28;20322;-54
2023/03/19 13:20:27;;;;;;;4.28;2.22;;;15.50;99.50;;;;;;5042374;28;20109;-52